Latest Coastal Weather Observations for Edithburgh

IDS60701

Issued at 12:31 pm CST Tuesday 28 June 2022 (issued every 10 minutes, with the page automatically refreshed every 10 minutes)

About coastal observations | Map of coastal stations | Coastal observations for SA | Marine services | Other Formats
Station Details ID: 022046 Name: EDITHBURGH Lat: -35.11 Lon: 137.74 Height: 6.0 m
Data from the previous 72 hours. | See also: Recent months at Edithburgh
Date/Time
CST
Wind Sea
Height
m
Swell Vis
km
Cloud Weather Temp
°C
Press
MSL
hPa
Rain since
9am
mm
Dir  Spd
kts
Gust
kts
Height
m
Period
s
Dir
28/12:30pm NW 15 19 - - - - - - - 15.9 1026.9 0.0
28/12:00pm NNW 13 17 - - - - - - - 15.9 1027.5 0.0
28/11:30am NNW 13 16 - - - - - - - 15.0 1028.1 0.0
28/11:00am NNW 10 17 - - - - - - - 14.5 1028.3 0.0
28/10:30am N 6 10 - - - - - - - 12.6 1028.7 0.0
28/10:00am N 7 10 - - - - - - - 11.6 1028.9 0.0
28/09:30am N 6 9 - - - - - - - 10.6 1029.0 0.0
28/09:00am N 4 7 - - - - - - - 9.6 1029.0 0.2
28/08:30am N 4 5 - - - - - - - 7.6 1029.2 0.2
28/08:00am NNW 5 7 - - - - - - - 7.4 1029.2 0.2
28/07:30am N 8 12 - - - - - - - - 1028.8 0.2
28/07:00am N 7 9 - - - - - - - 7.0 1028.8 0.2
28/06:30am N 5 7 - - - - - - - - 1028.8 0.2
28/06:00am N 6 8 - - - - - - - - 1028.6 0.0
28/05:30am N 6 9 - - - - - - - - 1028.3 0.0
28/05:00am N 6 8 - - - - - - - - 1028.5 0.0
28/04:30am N 6 8 - - - - - - - - 1028.6 0.0
28/04:00am N 6 7 - - - - - - - - 1028.7 0.0
28/03:30am N 6 7 - - - - - - - - 1029.0 0.0
28/03:00am N 6 10 - - - - - - - - 1029.5 0.0
28/02:30am N 4 6 - - - - - - - - 1029.6 0.0
28/02:00am NNW 5 6 - - - - - - - - 1029.8 0.0
28/01:30am N 5 6 - - - - - - - - 1029.8 0.0
28/01:00am N 5 6 - - - - - - - - 1030.2 0.0
28/12:30am N 4 5 - - - - - - - - 1030.5 0.0
28/12:00am N 5 9 - - - - - - - - 1030.6 0.0
 
Date/Time
CST
Wind Sea
Height
m
Swell Vis
km
Cloud Weather Temp
°C
Press
MSL
hPa
Rain since
9am
mm
Dir  Spd
kts
Gust
kts
Height
m
Period
s
Dir
27/11:30pm N 4 5 - - - - - - - - 1031.0 0.0
27/11:00pm NNW 4 5 - - - - - - - - 1031.5 0.0
27/10:30pm N 3 4 - - - - - - - - 1031.7 0.0
27/10:00pm N 3 4 - - - - - - - - 1032.0 0.0
27/09:30pm NNW 4 4 - - - - - - - - 1032.4 0.0
27/09:00pm N 3 3 - - - - - - - - 1032.5 0.0
27/08:30pm N 4 4 - - - - - - - - 1032.7 0.0
27/08:00pm CALM 0 0 - - - - - - - - 1032.9 0.0
27/07:30pm CALM 0 0 - - - - - - - - 1032.8 0.0
27/07:00pm NNE 1 2 - - - - - - - - 1032.6 0.0
27/06:30pm NNE 2 3 - - - - - - - - 1032.9 0.0
27/06:00pm NNE 1 3 - - - - - - - - 1032.9 0.0
27/05:30pm NNE 3 4 - - - - - - - - 1032.9 0.0
27/05:00pm NE 4 5 - - - - - - - - 1032.8 0.0
27/04:30pm NE 4 6 - - - - - - - - 1032.8 0.0
27/04:00pm NE 6 8 - - - - - - - - 1032.8 0.0
27/03:30pm NE 6 8 - - - - - - - - 1033.0 0.0
27/03:00pm NE 6 8 - - - - - - - - 1033.2 0.0
27/02:30pm NNE 6 9 - - - - - - - - 1033.5 0.0
27/02:00pm NE 6 9 - - - - - - - - 1033.8 0.0
27/01:30pm NNE 5 7 - - - - - - - - 1034.5 0.0
27/01:00pm NNE 6 9 - - - - - - - - 1034.7 0.0
27/12:30pm NNE 6 9 - - - - - - - - 1035.1 0.0
27/12:00pm NNE 6 9 - - - - - - - - 1035.5 0.0
27/11:30am N 5 9 - - - - - - - - 1035.7 0.0
27/11:00am N 6 10 - - - - - - - - 1036.0 0.0
27/10:30am N 7 10 - - - - - - - - 1036.3 0.0
27/10:00am N 7 9 - - - - - - - - 1036.0 0.0
27/09:30am NNW 6 9 - - - - - - - - 1035.7 0.0
27/09:00am NNW 5 7 - - - - - - - - 1035.5 0.2
27/08:30am NNW 7 9 - - - - - - - - 1035.2 0.2
27/08:00am NNE 5 9 - - - - - - - - 1034.8 0.2
27/07:30am NNE 6 8 - - - - - - - - 1034.3 0.2
27/07:00am NE 4 7 - - - - - - - - 1034.0 0.2
27/06:30am NNE 1 2 - - - - - - - - 1033.7 0.2
27/06:00am NE 3 4 - - - - - - - - 1033.7 0.2
27/05:30am NNE 1 2 - - - - - - - - 1033.6 0.2
27/05:00am CALM 0 0 - - - - - - - - 1033.4 0.2
27/04:30am WSW 1 3 - - - - - - - - 1033.3 0.2
27/04:00am NNW 3 4 - - - - - - - - 1033.1 0.2
27/03:30am CALM 0 0 - - - - - - - - 1033.2 0.2
27/03:00am CALM 0 0 - - - - - - - - 1033.2 0.2
27/02:30am SSE 1 2 - - - - - - - - 1033.5 0.2
27/02:00am ESE 4 9 - - - - - - - - 1033.3 0.2
27/01:30am SSE 3 5 - - - - - - - - 1033.4 0.2
27/01:00am SE 5 6 - - - - - - - - 1033.7 0.2
27/12:30am SE 6 7 - - - - - - - - 1033.7 0.2
27/12:00am SSE 5 7 - - - - - - - - 1033.7 0.2
 
Date/Time
CST
Wind Sea
Height
m
Swell Vis
km
Cloud Weather Temp
°C
Press
MSL
hPa
Rain since
9am
mm
Dir  Spd
kts
Gust
kts
Height
m
Period
s
Dir
26/11:30pm SSE 6 8 - - - - - - - - 1033.6 0.2
26/11:00pm SE 8 10 - - - - - - - - 1033.2 0.2
26/10:30pm SSE 7 9 - - - - - - - - 1033.2 0.2
26/10:00pm S 6 9 - - - - - - - - 1032.8 0.2
26/09:30pm S 8 10 - - - - - - - - 1032.7 0.2
26/09:00pm S 8 11 - - - - - - - - 1032.5 0.2
26/08:30pm S 7 10 - - - - - - - - 1032.2 0.2
26/08:00pm S 9 12 - - - - - - - - 1031.8 0.2
26/07:30pm S 9 13 - - - - - - - - 1031.5 0.2
26/07:00pm S 10 12 - - - - - - - - 1031.2 0.2
26/06:30pm S 10 13 - - - - - - - - 1031.0 0.2
26/06:00pm SSW 15 21 - - - - - - - - 1030.6 0.2
26/05:30pm S 14 18 - - - - - - - - 1030.1 0.2
26/05:00pm SSW 13 17 - - - - - - - - 1029.8 0.2
26/04:30pm SSW 13 17 - - - - - - - - 1029.3 0.2
26/04:00pm SSW 7 11 - - - - - - - - 1029.1 0.2
26/03:30pm SSE 5 7 - - - - - - - - 1028.8 0.2
26/03:00pm S 6 8 - - - - - - - - 1028.6 0.2
26/02:30pm S 5 8 - - - - - - - - 1028.4 0.2
26/02:00pm S 9 13 - - - - - - - - 1028.3 0.2
26/01:30pm SSE 8 11 - - - - - - - - 1028.2 0.0
26/01:00pm S 11 17 - - - - - - - - 1028.0 0.0
26/12:30pm SSW 10 13 - - - - - - - - 1028.1 0.0
26/12:00pm SW 9 12 - - - - - - - - 1028.3 0.0
26/11:30am WSW 6 9 - - - - - - - - 1028.2 0.0
26/11:00am WSW 9 14 - - - - - - - - 1028.3 0.0
26/10:30am WSW 6 10 - - - - - - - - 1028.2 0.0
26/10:00am W 11 16 - - - - - - - - 1028.2 0.0
26/09:50am W 8 20 - - - - - - - - 1027.9 0.0
26/09:30am W 4 6 - - - - - - - - 1027.7 0.0
26/09:00am W 6 8 - - - - - - Recent precip. - 1027.3 1.0
26/08:30am WNW 8 13 - - - - - - - - 1027.1 1.0
26/08:00am W 5 7 - - - - - - - - 1026.9 0.8
26/07:30am WNW 6 9 - - - - - - - - 1026.6 0.6
26/07:00am WNW 8 9 - - - - - - - - 1026.3 0.6
26/06:30am WNW 7 9 - - - - - - - - 1025.8 0.6
26/06:00am WNW 8 10 - - - - - - - - 1025.4 0.6
26/05:30am WNW 7 9 - - - - - - - - 1025.0 0.6
26/05:00am WNW 7 9 - - - - - - - - 1024.8 0.6
26/04:30am WNW 7 9 - - - - - - - - 1024.8 0.6
26/04:00am WNW 6 8 - - - - - - - - 1024.6 0.4
26/03:30am WNW 7 8 - - - - - - - - 1024.7 0.4
26/03:00am W 8 10 - - - - - - - - 1024.7 0.4
26/02:30am WNW 6 7 - - - - - - - - 1024.6 0.4
26/02:00am WNW 8 13 - - - - - - - - 1024.6 0.4
26/01:30am WNW 6 8 - - - - - - - - 1024.5 0.4
26/01:00am WNW 7 9 - - - - - - - - 1024.2 0.4
26/12:30am WNW 8 8 - - - - - - - - 1024.2 0.4
26/12:00am NW 6 8 - - - - - - - - 1024.4 0.4
 
Date/Time
CST
Wind Sea
Height
m
Swell Vis
km
Cloud Weather Temp
°C
Press
MSL
hPa
Rain since
9am
mm
Dir  Spd
kts
Gust
kts
Height
m
Period
s
Dir
25/11:30pm NW 8 10 - - - - - - - - 1024.3 0.4
25/11:00pm WNW 6 8 - - - - - - - - 1024.3 0.4
25/10:30pm WNW 8 9 - - - - - - - - 1024.2 0.4
25/10:00pm WNW 8 10 - - - - - - - - 1024.0 0.4
25/09:30pm WNW 6 8 - - - - - - - - 1024.0 0.4
25/09:00pm WNW 7 9 - - - - - - - - 1023.9 0.4
25/08:30pm NW 9 12 - - - - - - - - 1023.7 0.4
25/08:00pm NW 8 9 - - - - - - - - 1023.3 0.4
25/07:30pm NW 7 8 - - - - - - - - 1023.1 0.4
25/07:00pm NW 7 8 - - - - - - - - 1022.8 0.4
25/06:30pm NW 7 9 - - - - - - - - 1022.5 0.4
25/06:00pm WNW 10 12 - - - - - - - - 1022.2 0.4
25/05:30pm NW 10 12 - - - - - - - - 1022.0 0.4
25/05:00pm NW 7 9 - - - - - - - - 1021.8 0.4
25/04:30pm NW 8 10 - - - - - - - - 1021.7 0.4
25/04:00pm NW 11 13 - - - - - - - - 1021.6 0.4
25/03:30pm WNW 12 17 - - - - - - - - 1021.8 0.4
25/03:00pm W 15 22 - - - - - - Recent precip. - 1021.7 0.4
25/02:30pm NW 14 19 - - - - - - - - 1021.4 0.0
25/02:00pm WNW 19 23 - - - - - - - - 1021.5 0.0
25/01:30pm NW 18 22 - - - - - - - - 1021.6 0.0
25/01:00pm NW 18 22 - - - - - - - - 1021.7 0.0

Other formats

Comma delimited format used in spreadsheet applications
http://www.bom.gov.au/fwo/IDS60701/IDS60701.94809.axf

JavaScript Object Notation format (JSON) in row-major order
http://www.bom.gov.au/fwo/IDS60701/IDS60701.94809.json

Data quality

Most of these data are generated automatically and are frequently updated. Quality checks on data are not normally performed. It is possible for incorrect values to appear. Refer to information at About Latest Weather Observations and please check the disclaimer before using these data.